Time;durP1;ratioP1;P1;durP2;ratioP2;P2;SDS_P1;SDS_P2;PMS_P1;PMS_P2;Temp;Humidity;BMP_temperature;BMP_pressure;BME280_temperature;BME280_humidity;BME280_pressure;Samples;Min_cycle;Max_cycle;Signal;HPM_P1;HPM_P2
2023/10/08 00:01:14;;;;;;;7.33;4.80;;;;;;;13.30;64.92;97266.09;5030105;28;20243;-72
2023/10/08 00:03:50;;;;;;;12.13;5.40;;;;;;;13.48;64.49;97271.16;5029255;28;20201;-77
2023/10/08 00:06:21;;;;;;;9.47;4.77;;;;;;;13.55;64.12;97263.88;5029824;28;20220;-75
2023/10/08 00:08:50;;;;;;;11.00;4.40;;;;;;;13.39;64.08;97263.00;5029795;28;20211;-82
2023/10/08 00:11:18;;;;;;;8.43;4.97;;;;;;;13.53;63.94;97260.50;5029683;28;21028;-76
2023/10/08 00:13:48;;;;;;;9.27;5.33;;;;;;;13.39;64.65;97250.00;5029711;28;20677;-81
2023/10/08 00:16:17;;;;;;;9.33;5.10;;;;;;;13.35;64.42;97238.09;5029023;28;20199;-81
2023/10/08 00:18:48;;;;;;;8.73;5.10;;;;;;;13.43;64.77;97244.56;5029343;28;20236;-75
2023/10/08 00:21:26;;;;;;;10.93;6.07;;;;;;;13.42;64.44;97242.88;5028733;28;20618;-74
2023/10/08 00:23:57;;;;;;;7.43;5.17;;;;;;;13.16;64.88;97237.38;5028844;28;20247;-74
2023/10/08 00:26:27;;;;;;;10.30;5.00;;;;;;;13.22;65.13;97237.06;5029332;28;20253;-78
2023/10/08 00:29:01;;;;;;;13.00;5.47;;;;;;;12.90;65.27;97213.53;5028288;28;20284;-86
2023/10/08 00:31:31;;;;;;;11.43;5.37;;;;;;;12.75;66.30;97232.56;5029323;28;20206;-85
2023/10/08 00:33:58;;;;;;;8.87;4.77;;;;;;;12.65;67.67;97238.28;5026915;28;20307;-81
2023/10/08 00:36:26;;;;;;;10.90;5.73;;;;;;;12.87;66.37;97236.25;5029081;28;20202;-83
2023/10/08 00:38:58;;;;;;;9.17;5.70;;;;;;;12.65;67.03;97226.13;5028674;28;20206;-83
2023/10/08 00:41:28;;;;;;;8.20;5.43;;;;;;;12.88;66.89;97233.59;5027414;28;20593;-78
2023/10/08 00:44:05;;;;;;;8.77;5.77;;;;;;;12.87;66.14;97234.50;5028974;28;20207;-81
2023/10/08 00:46:35;;;;;;;8.83;4.97;;;;;;;13.18;65.45;97227.72;5026622;28;20216;-79
2023/10/08 00:49:24;;;;;;;10.77;5.47;;;;;;;13.48;64.25;97226.06;5029290;28;20225;-77
2023/10/08 00:52:25;;;;;;;8.83;5.67;;;;;;;13.55;63.74;97225.69;5027250;28;20201;-74
2023/10/08 00:57:29;;;;;;;8.30;4.63;;;;;;;13.59;63.23;97208.97;5029312;28;20654;-84
2023/10/08 01:00:00;;;;;;;9.67;6.13;;;;;;;13.73;62.52;97214.25;5027469;28;20209;-87
2023/10/08 01:02:42;;;;;;;9.13;5.80;;;;;;;13.63;63.38;97212.25;5027104;28;20686;-83
2023/10/08 01:05:12;;;;;;;12.73;6.23;;;;;;;13.60;63.61;97208.03;5028391;28;20197;-84
2023/10/08 01:07:48;;;;;;;8.93;5.83;;;;;;;13.36;63.59;97183.38;5027692;28;20215;-73
2023/10/08 01:10:19;;;;;;;10.10;5.60;;;;;;;13.47;64.14;97195.81;5029074;28;20201;-79
2023/10/08 01:15:28;;;;;;;12.27;6.00;;;;;;;13.41;63.64;97180.53;5026947;28;20323;-72
2023/10/08 01:17:59;;;;;;;10.27;5.90;;;;;;;13.47;64.02;97193.19;5026630;28;20232;-84
2023/10/08 01:20:37;;;;;;;8.73;5.30;;;;;;;13.22;64.35;97195.44;5027577;28;20203;-71
2023/10/08 01:23:10;;;;;;;9.70;5.97;;;;;;;12.89;65.08;97183.28;5028544;28;20671;-73
2023/10/08 01:25:38;;;;;;;9.00;5.33;;;;;;;12.79;65.45;97176.91;5027335;28;20280;-80
2023/10/08 01:28:49;;;;;;;8.93;5.90;;;;;;;12.57;66.12;97185.88;5027944;28;20210;-71
2023/10/08 01:31:00;;;;;;;11.03;5.67;;;;;;;12.55;65.58;97183.34;5023768;28;20766;-70
2023/10/08 01:33:28;;;;;;;7.20;4.57;;;;;;;12.54;65.48;97178.22;5027681;28;20563;-71
2023/10/08 01:36:03;;;;;;;7.30;4.60;;;;;;;12.16;66.39;97180.16;5028127;28;20223;-71
2023/10/08 01:38:33;;;;;;;8.53;5.50;;;;;;;12.00;67.45;97158.47;5025444;28;20206;-71
2023/10/08 01:41:10;;;;;;;6.93;4.43;;;;;;;11.97;67.90;97167.25;5027897;28;20578;-70
2023/10/08 01:43:38;;;;;;;10.73;5.00;;;;;;;11.72;68.96;97161.59;5027412;28;20272;-71
2023/10/08 01:46:11;;;;;;;6.33;4.20;;;;;;;11.72;68.91;97168.53;5026074;28;20200;-71
2023/10/08 01:48:39;;;;;;;8.90;5.00;;;;;;;11.99;68.68;97169.78;5027511;28;20286;-72
2023/10/08 01:51:11;;;;;;;9.17;5.10;;;;;;;11.65;69.94;97161.91;5025498;28;20196;-74
2023/10/08 01:53:38;;;;;;;9.50;5.63;;;;;;;11.42;70.85;97165.59;5027956;28;20204;-70
2023/10/08 01:56:06;;;;;;;11.67;5.17;;;;;;;11.40;70.90;97163.09;5026852;28;20290;-71
2023/10/08 01:58:36;;;;;;;9.60;4.40;;;;;;;11.56;71.51;97163.19;5026068;28;20201;-71
2023/10/08 02:01:05;;;;;;;6.77;4.67;;;;;;;11.75;70.17;97169.22;5026113;28;20270;-73
2023/10/08 02:03:32;;;;;;;8.13;4.57;;;;;;;11.89;69.82;97165.97;5027138;28;20205;-71
2023/10/08 02:05:59;;;;;;;8.07;4.67;;;;;;;11.74;69.92;97145.94;5027415;28;20202;-72
2023/10/08 02:08:27;;;;;;;7.37;4.80;;;;;;;11.70;70.40;97166.03;5026613;28;20201;-72
2023/10/08 02:10:54;;;;;;;10.27;4.60;;;;;;;11.68;69.94;97161.81;5009369;28;20201;-72
2023/10/08 02:13:21;;;;;;;7.33;4.03;;;;;;;11.83;69.12;97158.50;5025120;28;20203;-71
2023/10/08 02:15:52;;;;;;;7.67;4.60;;;;;;;12.05;68.62;97159.09;5027066;28;20230;-72
2023/10/08 02:18:23;;;;;;;9.00;4.97;;;;;;;12.46;66.65;97165.66;5026722;28;20846;-73
2023/10/08 02:20:51;;;;;;;7.17;4.70;;;;;;;12.76;65.93;97160.59;5026659;28;20239;-77
2023/10/08 02:23:25;;;;;;;7.30;4.13;;;;;;;12.62;65.38;97150.94;5027290;28;20204;-75
2023/10/08 02:25:54;;;;;;;6.47;3.93;;;;;;;12.42;65.99;97145.94;5024870;28;20202;-72
2023/10/08 02:28:38;;;;;;;8.33;4.50;;;;;;;12.33;66.31;97143.81;5027174;28;20294;-73
2023/10/08 02:31:05;;;;;;;8.53;4.67;;;;;;;12.51;65.63;97134.25;5026891;28;20199;-70
2023/10/08 02:33:34;;;;;;;6.17;4.40;;;;;;;12.70;65.67;97148.78;5029763;28;20205;-71
2023/10/08 02:36:04;;;;;;;5.00;3.90;;;;;;;12.94;65.08;97131.88;5040770;28;20226;-77
2023/10/08 02:38:37;;;;;;;7.10;4.17;;;;;;;13.23;63.67;97143.34;5047676;28;20209;-71
2023/10/08 02:41:06;;;;;;;11.30;4.80;;;;;;;13.34;63.08;97137.56;5042523;28;20250;-72
2023/10/08 02:43:36;;;;;;;7.10;4.43;;;;;;;13.25;62.54;97117.28;5055005;28;20254;-71
2023/10/08 02:46:06;;;;;;;10.40;4.83;;;;;;;13.20;62.94;97134.88;5045310;28;20193;-72
2023/10/08 02:48:34;;;;;;;10.90;4.63;;;;;;;12.94;62.60;97134.47;5031685;28;20220;-71
2023/10/08 02:51:07;;;;;;;14.70;5.60;;;;;;;12.97;62.29;97134.34;5026657;28;20233;-73
2023/10/08 02:53:35;;;;;;;10.23;4.40;;;;;;;12.49;64.24;97120.50;5043949;28;20204;-72
2023/10/08 02:56:12;;;;;;;9.40;5.40;;;;;;;12.28;64.34;97123.25;5045913;28;20282;-71
2023/10/08 02:58:40;;;;;;;8.63;4.40;;;;;;;11.94;65.86;97127.63;5031853;28;20211;-71
2023/10/08 03:01:12;;;;;;;7.70;4.23;;;;;;;11.78;66.59;97122.38;5024791;28;20660;-86
2023/10/08 03:03:42;;;;;;;8.67;4.50;;;;;;;11.94;66.72;97118.09;5024988;28;20200;-85
2023/10/08 03:06:14;;;;;;;8.60;4.37;;;;;;;12.17;65.92;97120.41;5026316;28;20618;-73
2023/10/08 03:08:42;;;;;;;7.33;4.33;;;;;;;12.25;64.80;97118.25;5044314;28;20208;-71
2023/10/08 03:11:16;;;;;;;8.10;4.00;;;;;;;12.18;64.94;97126.41;5047009;28;20654;-71
2023/10/08 03:13:51;;;;;;;9.77;5.00;;;;;;;12.40;64.34;97114.03;5045784;28;20200;-75
2023/10/08 03:16:27;;;;;;;6.40;3.90;;;;;;;11.92;66.38;97121.69;5045122;28;20232;-70
2023/10/08 03:18:57;;;;;;;7.47;4.53;;;;;;;11.98;66.25;97122.22;5045614;28;20660;-72
2023/10/08 03:21:48;;;;;;;8.17;4.53;;;;;;;12.00;66.10;97116.94;5044840;28;20202;-70
2023/10/08 03:24:29;;;;;;;9.57;4.57;;;;;;;11.94;65.80;97101.69;5049890;28;20200;-70
2023/10/08 03:27:41;;;;;;;8.13;4.00;;;;;;;12.14;65.82;97110.16;5048296;28;20199;-71
2023/10/08 03:29:54;;;;;;;7.10;4.13;;;;;;;12.01;66.04;97108.25;5049513;28;20587;-70
2023/10/08 03:32:26;;;;;;;8.97;5.10;;;;;;;11.83;66.50;97101.41;5050167;28;20233;-70
2023/10/08 03:34:54;;;;;;;7.83;4.03;;;;;;;12.03;66.25;97102.09;5049821;28;20275;-72
2023/10/08 03:37:29;;;;;;;10.23;4.50;;;;;;;12.10;65.91;97107.78;5050476;28;20200;-73
2023/10/08 03:42:45;;;;;;;10.07;4.93;;;;;;;11.56;68.77;97103.53;5049377;28;20192;-73
2023/10/08 03:45:12;;;;;;;9.40;4.30;;;;;;;11.51;68.48;97086.53;5049897;28;20191;-70
2023/10/08 03:47:46;;;;;;;7.80;4.70;;;;;;;11.95;67.83;97098.19;5048978;28;20321;-71
2023/10/08 03:50:17;;;;;;;6.07;4.13;;;;;;;12.15;67.06;97096.28;5050254;28;20278;-72
2023/10/08 03:52:46;;;;;;;6.93;3.93;;;;;;;12.19;66.39;97096.94;5047457;28;20321;-71
2023/10/08 03:55:21;;;;;;;5.67;4.00;;;;;;;12.21;66.97;97101.13;5049776;28;20265;-71
2023/10/08 03:57:56;;;;;;;5.73;3.83;;;;;;;12.30;66.00;97097.25;5049201;28;20186;-71
2023/10/08 04:00:31;;;;;;;7.27;3.97;;;;;;;12.30;66.58;97080.81;5048934;28;20228;-74
2023/10/08 04:03:11;;;;;;;9.03;4.43;;;;;;;12.42;65.08;97101.78;5049465;28;20192;-71
2023/10/08 04:05:56;;;;;;;6.17;4.17;;;;;;;12.05;66.46;97102.84;5048918;28;20199;-70
2023/10/08 04:08:58;;;;;;;5.77;3.87;;;;;;;11.65;67.08;97061.59;5048852;28;20295;-72
2023/10/08 04:11:30;;;;;;;7.23;4.03;;;;;;;11.78;66.67;97080.03;5049188;28;20202;-74
2023/10/08 04:14:02;;;;;;;6.23;4.10;;;;;;;11.83;67.12;97093.63;5048338;28;20294;-83
2023/10/08 04:16:30;;;;;;;9.20;5.03;;;;;;;11.81;65.76;97072.91;5049382;28;20232;-82
2023/10/08 04:18:57;;;;;;;5.27;3.70;;;;;;;12.15;65.62;97088.47;5048614;28;20226;-71
2023/10/08 04:21:27;;;;;;;8.70;3.80;;;;;;;12.18;65.01;97090.91;5049010;28;20217;-74
2023/10/08 04:23:57;;;;;;;5.30;3.70;;;;;;;12.07;65.40;97094.97;5048631;28;20205;-75
2023/10/08 04:26:25;;;;;;;7.17;3.40;;;;;;;12.06;65.31;97093.28;5048336;28;20294;-81
2023/10/08 04:29:02;;;;;;;6.40;4.00;;;;;;;11.95;65.22;97085.22;5047245;28;20204;-72
2023/10/08 04:31:43;;;;;;;10.13;4.07;;;;;;;12.06;64.88;97085.50;5037220;28;20244;-78
2023/10/08 04:34:15;;;;;;;8.47;4.67;;;;;;;12.16;65.02;97095.34;5044823;28;20634;-78
2023/10/08 04:36:45;;;;;;;7.97;4.37;;;;;;;11.79;65.95;97087.72;5042354;28;20313;-72
2023/10/08 04:39:15;;;;;;;6.20;4.07;;;;;;;11.63;66.97;97091.97;5044422;28;20198;-80
2023/10/08 04:41:43;;;;;;;7.10;3.93;;;;;;;11.83;66.11;97098.81;5048634;28;20199;-73
2023/10/08 04:44:14;;;;;;;6.87;4.07;;;;;;;11.81;66.25;97090.25;5043484;28;20195;-73
2023/10/08 04:49:28;;;;;;;6.80;4.30;;;;;;;11.87;65.21;97095.16;5036292;28;20578;-71
2023/10/08 04:52:27;;;;;;;7.17;4.27;;;;;;;11.83;65.57;97097.03;5028093;28;20240;-74
2023/10/08 04:54:56;;;;;;;7.30;3.60;;;;;;;11.70;65.93;97082.16;5028684;28;20792;-71
2023/10/08 04:57:25;;;;;;;5.17;3.50;;;;;;;12.05;65.52;97089.03;5027846;28;20194;-72
2023/10/08 04:59:57;;;;;;;6.10;3.30;;;;;;;12.08;63.67;97062.88;5033153;28;20201;-73
2023/10/08 05:02:36;;;;;;;6.87;3.90;;;;;;;12.41;64.19;97083.66;5039824;28;20301;-72
2023/10/08 05:05:22;;;;;;;8.53;4.47;;;;;;;12.74;62.44;97089.69;5048269;28;20302;-73
2023/10/08 05:15:35;;;;;;;12.40;3.83;;;;;;;12.84;62.03;97093.47;5040662;28;20226;-71
2023/10/08 05:18:23;;;;;;;10.70;3.70;;;;;;;12.97;62.01;97100.53;5046934;28;20460;-71
2023/10/08 05:26:20;;;;;;;6.87;4.00;;;;;;;13.13;62.09;97092.75;5038645;28;20193;-71
2023/10/08 05:29:25;;;;;;;8.67;4.77;;;;;;;13.22;61.53;97097.47;5047080;28;20251;-80
2023/10/08 05:32:18;;;;;;;11.20;3.60;;;;;;;13.15;62.07;97090.91;5045896;28;20290;-76
2023/10/08 05:34:42;;;;;;;8.60;4.07;;;;;;;13.31;61.83;97096.13;5042089;28;20475;-71
2023/10/08 05:37:31;;;;;;;7.53;3.83;;;;;;;13.31;61.18;97096.13;5046857;28;20663;-73
2023/10/08 05:40:12;;;;;;;7.40;3.07;;;;;;;13.46;60.61;97092.66;5030578;28;20205;-81
2023/10/08 05:42:46;;;;;;;6.50;3.57;;;;;;;13.72;59.33;97085.03;5043038;28;20218;-79
2023/10/08 05:45:14;;;;;;;5.10;2.77;;;;;;;14.12;58.98;97095.72;5047198;28;20608;-85
2023/10/08 05:48:06;;;;;;;6.60;3.77;;;;;;;14.25;58.47;97094.94;5047976;28;20202;-77
2023/10/08 05:50:39;;;;;;;9.63;4.20;;;;;;;14.49;57.82;97096.09;5047106;28;20518;-86
2023/10/08 05:53:43;;;;;;;5.33;3.40;;;;;;;14.61;57.43;97097.97;5304248;22;20227;-70
2023/10/08 05:56:27;;;;;;;5.03;3.33;;;;;;;14.76;57.16;97095.34;5005774;28;20257;-81
2023/10/08 05:59:38;;;;;;;6.50;3.40;;;;;;;14.98;56.65;97101.75;5007787;28;20231;-81
2023/10/08 06:01:58;;;;;;;7.17;3.37;;;;;;;15.14;56.77;97093.81;5004338;28;20207;-84
2023/10/08 06:04:53;;;;;;;5.50;3.10;;;;;;;15.42;55.40;97106.78;4993970;28;20195;-78
2023/10/08 06:07:33;;;;;;;8.63;3.10;;;;;;;15.55;54.76;97088.59;5002356;28;20587;-74
2023/10/08 06:10:05;;;;;;;13.00;3.27;;;;;;;15.48;55.09;97078.56;4988924;28;20287;-71
2023/10/08 06:12:44;;;;;;;7.10;3.37;;;;;;;15.68;54.89;97090.31;4991510;28;20778;-80
2023/10/08 06:15:12;;;;;;;11.50;4.10;;;;;;;15.91;54.55;97062.69;4995745;28;20192;-87
2023/10/08 06:18:04;;;;;;;5.93;3.30;;;;;;;16.13;53.65;97082.06;4992740;28;20741;-83
2023/10/08 06:20:34;;;;;;;5.50;2.90;;;;;;;15.96;54.01;97074.50;5004795;28;20224;-81
2023/10/08 06:23:06;;;;;;;7.23;3.27;;;;;;;16.27;53.31;97073.28;5012728;28;20199;-80
2023/10/08 06:25:46;;;;;;;8.13;3.67;;;;;;;16.47;52.64;97075.38;5008396;28;20194;-73
2023/10/08 06:28:17;;;;;;;7.23;2.90;;;;;;;16.64;52.53;97080.31;5004234;28;20200;-78
2023/10/08 06:30:45;;;;;;;6.43;3.13;;;;;;;16.81;52.13;97068.69;5001170;28;20306;-75
2023/10/08 06:33:14;;;;;;;5.83;2.80;;;;;;;16.96;51.52;97057.97;4997382;28;20405;-81
2023/10/08 06:35:44;;;;;;;8.43;3.30;;;;;;;16.83;51.50;97054.56;5004034;28;20320;-86
2023/10/08 06:38:14;;;;;;;6.20;3.07;;;;;;;16.64;51.85;97061.16;5007303;28;20200;-81
2023/10/08 06:40:42;;;;;;;11.97;3.73;;;;;;;16.79;52.03;97066.19;4994118;28;20212;-87
2023/10/08 06:43:24;;;;;;;12.03;3.67;;;;;;;17.05;50.71;97066.94;4988264;28;20875;-80
2023/10/08 06:45:52;;;;;;;8.50;3.40;;;;;;;17.24;50.11;97083.03;5005806;28;20198;-82
2023/10/08 06:48:21;;;;;;;6.93;3.23;;;;;;;17.51;50.29;97072.38;5005851;28;20208;-78
2023/10/08 06:50:49;;;;;;;9.37;3.77;;;;;;;17.75;49.86;97073.19;5010023;28;20222;-79
2023/10/08 06:53:21;;;;;;;8.13;3.70;;;;;;;17.89;49.80;97075.63;5008488;28;20720;-83
2023/10/08 06:55:56;;;;;;;7.07;3.80;;;;;;;18.09;50.65;97076.75;5008160;28;20233;-82
2023/10/08 06:58:24;;;;;;;8.97;4.37;;;;;;;18.20;49.50;97042.69;5024425;28;20197;-84
2023/10/08 07:00:52;;;;;;;8.83;4.90;;;;;;;18.41;48.67;97077.78;5011171;28;20194;-79
2023/10/08 07:03:20;;;;;;;8.63;3.80;;;;;;;18.45;48.42;97068.75;5010206;28;20255;-85
2023/10/08 07:05:57;;;;;;;15.40;4.30;;;;;;;18.34;49.07;97066.91;4994579;28;20201;-82
2023/10/08 07:08:31;;;;;;;8.83;3.80;;;;;;;18.42;48.49;97056.66;4998546;28;20213;-81
2023/10/08 07:11:01;;;;;;;8.60;3.60;;;;;;;18.52;47.95;97059.47;4998589;28;20257;-81
2023/10/08 07:13:29;;;;;;;6.50;3.43;;;;;;;18.86;46.53;97069.00;5012252;28;20256;-81
2023/10/08 07:15:57;;;;;;;5.63;3.30;;;;;;;18.80;46.42;97069.50;4995203;28;20238;-82
2023/10/08 07:18:31;;;;;;;9.60;3.60;;;;;;;19.12;45.38;97074.84;5004182;28;20264;-84
2023/10/08 07:21:04;;;;;;;8.97;3.70;;;;;;;19.28;44.74;97067.41;5007310;28;20209;-88
2023/10/08 07:23:34;;;;;;;8.37;3.43;;;;;;;19.41;44.50;97057.63;5011609;28;20198;-89
2023/10/08 07:26:13;;;;;;;13.47;5.23;;;;;;;19.57;43.83;97055.44;4994966;28;20196;-82
2023/10/08 07:28:41;;;;;;;9.47;3.40;;;;;;;19.91;42.92;97071.88;4974000;28;20630;-74
2023/10/08 07:31:22;;;;;;;9.03;3.23;;;;;;;20.26;43.47;97067.19;4990090;28;20223;-77
2023/10/08 07:36:40;;;;;;;7.40;3.40;;;;;;;20.47;41.36;97062.75;4988438;28;20615;-76
2023/10/08 07:39:08;;;;;;;7.47;3.03;;;;;;;20.68;40.87;97068.81;4991267;28;20223;-82
2023/10/08 07:41:36;;;;;;;9.47;3.07;;;;;;;20.78;38.75;97050.44;4989123;28;20192;-86
2023/10/08 07:44:07;;;;;;;11.30;3.33;;;;;;;20.98;37.83;97062.69;4991128;28;20589;-80
2023/10/08 07:46:35;;;;;;;6.17;3.03;;;;;;;21.08;36.56;97068.03;5008486;28;20189;-83
2023/10/08 07:49:04;;;;;;;8.53;3.33;;;;;;;21.42;36.59;97062.31;5008686;28;20191;-83
2023/10/08 07:51:32;;;;;;;5.23;3.00;;;;;;;21.48;35.96;97059.13;5010586;28;20690;-78
2023/10/08 07:54:00;;;;;;;6.13;3.00;;;;;;;21.69;35.88;97053.72;5009158;28;20784;-86
2023/10/08 07:56:29;;;;;;;5.30;3.10;;;;;;;21.77;34.61;97059.16;5011267;28;20713;-74
2023/10/08 07:58:57;;;;;;;6.37;3.03;;;;;;;21.89;35.30;97039.59;5009969;28;20199;-80
2023/10/08 08:01:27;;;;;;;5.37;3.00;;;;;;;22.02;34.96;97045.44;4999622;28;20232;-80
2023/10/08 08:03:55;;;;;;;6.43;3.40;;;;;;;22.18;34.32;97040.41;5011825;28;20198;-86
2023/10/08 08:06:25;;;;;;;9.13;3.07;;;;;;;22.35;33.86;97036.22;4993486;28;20563;-78
2023/10/08 08:08:55;;;;;;;6.20;3.60;;;;;;;22.34;33.73;97038.00;4991262;28;20669;-82
2023/10/08 08:11:26;;;;;;;9.03;3.07;;;;;;;22.51;33.14;97024.09;4997532;28;20627;-74
2023/10/08 08:13:55;;;;;;;7.23;3.23;;;;;;;22.67;32.94;97037.53;5010211;28;20237;-86
2023/10/08 08:16:22;;;;;;;6.80;3.40;;;;;;;22.96;32.30;97029.50;5011917;28;20230;-87
2023/10/08 08:18:52;;;;;;;9.20;3.80;;;;;;;22.92;32.13;97024.63;5013134;28;20191;-84
2023/10/08 08:21:20;;;;;;;8.83;3.90;;;;;;;22.93;31.95;97010.47;5002054;28;20218;-70
2023/10/08 08:23:50;;;;;;;6.53;3.90;;;;;;;23.14;31.93;97000.47;5008789;28;20203;-88
2023/10/08 08:26:26;;;;;;;7.73;2.93;;;;;;;23.24;32.22;97009.19;5000515;28;20196;-74
2023/10/08 08:29:01;;;;;;;6.53;2.70;;;;;;;23.31;31.61;97004.94;5003847;28;20258;-81
2023/10/08 08:31:31;;;;;;;6.17;3.17;;;;;;;23.30;32.09;96998.00;4999358;28;20237;-75
2023/10/08 08:34:08;;;;;;;5.90;3.00;;;;;;;23.55;31.81;96996.47;5002683;28;20671;-76
2023/10/08 08:36:39;;;;;;;6.63;3.30;;;;;;;23.57;32.51;96984.78;5007175;28;20785;-76
2023/10/08 08:39:08;;;;;;;7.17;3.00;;;;;;;23.59;32.73;96989.91;5007671;28;20210;-84
2023/10/08 08:41:38;;;;;;;5.33;2.53;;;;;;;23.68;32.76;96979.22;5009361;28;20200;-75
2023/10/08 08:44:07;;;;;;;10.70;2.50;;;;;;;23.75;33.70;96993.53;5008622;28;20217;-75
2023/10/08 08:46:37;;;;;;;9.10;2.83;;;;;;;23.86;33.49;96979.22;5007746;28;20595;-79
2023/10/08 08:49:11;;;;;;;11.00;2.60;;;;;;;23.92;34.28;96984.75;5005434;28;20215;-78
2023/10/08 08:51:38;;;;;;;5.33;2.60;;;;;;;24.06;33.57;96980.72;5006037;28;20726;-77
2023/10/08 08:54:08;;;;;;;4.37;2.20;;;;;;;24.00;32.91;96971.56;5009650;28;20228;-73
2023/10/08 08:56:43;;;;;;;4.70;2.30;;;;;;;24.03;32.65;96960.69;5011290;28;20229;-71
2023/10/08 08:59:12;;;;;;;14.53;3.30;;;;;;;24.27;33.32;96972.44;5007371;28;20196;-69
2023/10/08 09:01:42;;;;;;;5.40;2.20;;;;;;;24.36;33.37;96976.81;5008827;28;20201;-72
2023/10/08 09:04:10;;;;;;;16.30;3.47;;;;;;;24.37;32.54;96960.75;5006101;28;20227;-71
2023/10/08 09:06:38;;;;;;;9.33;2.70;;;;;;;24.36;32.46;96968.84;5007534;28;20293;-71
2023/10/08 09:09:41;;;;;;;9.57;2.70;;;;;;;24.46;32.93;96966.94;5004958;28;20209;-71
2023/10/08 09:12:01;;;;;;;14.30;2.73;;;;;;;24.43;32.09;96946.88;5004423;28;20736;-72
2023/10/08 09:14:29;;;;;;;5.10;2.07;;;;;;;24.58;31.55;96973.59;5008453;28;20210;-73
2023/10/08 09:17:00;;;;;;;11.07;2.70;;;;;;;24.58;31.74;96950.59;5003307;28;20232;-70
2023/10/08 09:19:27;;;;;;;11.77;2.77;;;;;;;24.51;31.59;96960.16;5005311;28;20195;-73
2023/10/08 09:22:11;;;;;;;10.00;2.87;;;;;;;24.62;31.31;96965.19;4999586;28;20225;-71
2023/10/08 09:24:40;;;;;;;7.20;2.30;;;;;;;24.67;31.23;96970.81;4987192;28;20768;-72
2023/10/08 09:27:15;;;;;;;6.87;2.63;;;;;;;24.80;31.55;96954.53;4990727;28;20209;-71
2023/10/08 09:29:42;;;;;;;5.80;2.60;;;;;;;24.84;31.53;96961.16;5005336;28;20835;-75
2023/10/08 09:32:13;;;;;;;8.13;2.40;;;;;;;24.85;31.54;96946.94;4990237;28;20681;-72
2023/10/08 09:34:43;;;;;;;12.60;3.50;;;;;;;24.91;31.16;96938.34;4986270;28;20198;-73
2023/10/08 09:37:10;;;;;;;4.47;2.00;;;;;;;24.94;31.07;96946.78;4986720;28;20231;-72
2023/10/08 09:39:40;;;;;;;5.57;2.40;;;;;;;25.01;31.05;96969.03;4987219;28;20290;-73
2023/10/08 09:42:11;;;;;;;5.13;2.13;;;;;;;24.91;31.25;96951.59;4987409;28;20202;-73
2023/10/08 09:44:40;;;;;;;6.07;2.40;;;;;;;25.03;31.35;96945.84;4988663;28;20202;-71
2023/10/08 09:47:12;;;;;;;5.93;2.53;;;;;;;25.16;31.63;96957.78;4987580;28;20195;-72
2023/10/08 09:50:07;;;;;;;4.90;2.20;;;;;;;25.23;31.37;96951.66;4987517;28;20708;-71
2023/10/08 09:52:57;;;;;;;10.17;2.43;;;;;;;25.23;30.71;96954.31;5020326;28;20687;-72
2023/10/08 09:55:24;;;;;;;6.03;2.77;;;;;;;25.20;30.67;96956.47;5005440;28;20320;-73
2023/10/08 09:57:55;;;;;;;4.00;2.20;;;;;;;25.35;30.92;96944.25;5008883;28;20238;-76
2023/10/08 10:00:33;;;;;;;7.37;2.83;;;;;;;25.49;31.17;96935.69;5008566;28;20196;-73
2023/10/08 10:03:02;;;;;;;5.17;1.97;;;;;;;25.53;31.19;96939.66;4976970;28;20576;-74
2023/10/08 10:05:37;;;;;;;6.13;2.30;;;;;;;25.38;31.10;96939.44;5001992;28;20207;-72
2023/10/08 10:08:05;;;;;;;8.50;2.67;;;;;;;25.43;31.85;96926.53;5004195;28;20207;-73
2023/10/08 10:10:38;;;;;;;6.83;2.70;;;;;;;25.68;31.06;96932.69;4997989;28;20203;-73
2023/10/08 10:13:09;;;;;;;7.27;2.57;;;;;;;25.63;31.47;96906.69;4988323;28;20212;-73
2023/10/08 10:15:37;;;;;;;6.93;2.73;;;;;;;25.48;31.11;96929.53;4986572;28;20208;-72
2023/10/08 10:18:19;;;;;;;5.80;2.37;;;;;;;25.40;31.45;96916.25;4988412;28;20219;-71
2023/10/08 10:20:59;;;;;;;6.90;2.37;;;;;;;25.51;31.39;96923.09;4997970;28;20195;-72
2023/10/08 10:23:37;;;;;;;6.57;2.70;;;;;;;25.61;31.44;96907.81;4998730;28;20231;-73
2023/10/08 10:26:04;;;;;;;8.37;2.80;;;;;;;25.76;31.47;96906.97;4997400;28;20200;-70
2023/10/08 10:28:33;;;;;;;7.57;2.93;;;;;;;25.82;31.60;96905.50;4988168;28;20283;-71
2023/10/08 10:31:03;;;;;;;7.13;2.90;;;;;;;25.96;30.96;96907.47;4993716;28;20196;-74
2023/10/08 10:33:32;;;;;;;6.20;2.10;;;;;;;25.78;30.79;96893.56;4986808;28;20216;-71
2023/10/08 10:36:02;;;;;;;8.73;3.10;;;;;;;25.90;31.00;96886.91;4986748;28;20194;-72
2023/10/08 10:38:29;;;;;;;7.97;2.87;;;;;;;25.98;31.50;96894.84;4987124;28;20247;-70
2023/10/08 10:40:56;;;;;;;6.60;2.40;;;;;;;26.02;31.10;96890.03;4986505;28;20192;-71
2023/10/08 10:43:33;;;;;;;8.00;2.77;;;;;;;26.07;31.17;96888.53;4968899;28;20271;-71
2023/10/08 10:46:24;;;;;;;10.03;3.10;;;;;;;26.07;30.89;96887.72;4987839;28;20206;-70
2023/10/08 10:51:48;;;;;;;15.13;3.40;;;;;;;26.18;31.10;96884.72;4976967;28;20200;-70
2023/10/08 10:54:23;;;;;;;11.00;3.07;;;;;;;26.13;31.27;96871.13;4987693;28;20224;-76
2023/10/08 10:57:16;;;;;;;12.03;3.10;;;;;;;26.14;30.82;96878.91;5000279;28;20721;-80
2023/10/08 10:59:53;;;;;;;7.40;2.83;;;;;;;26.30;30.66;96865.59;5007607;28;20290;-74
2023/10/08 11:02:30;;;;;;;7.60;2.63;;;;;;;26.27;30.70;96865.09;5008188;28;20693;-79
2023/10/08 11:05:07;;;;;;;10.57;3.10;;;;;;;26.44;30.36;96866.72;5007609;28;20687;-80
2023/10/08 11:07:37;;;;;;;7.43;3.00;;;;;;;26.45;30.59;96871.00;5009082;28;20195;-84
2023/10/08 11:10:10;;;;;;;7.20;2.77;;;;;;;26.45;30.12;96865.69;5021370;28;20753;-82
2023/10/08 11:12:47;;;;;;;8.90;2.90;;;;;;;26.35;30.23;96847.31;5006115;28;20191;-82
2023/10/08 11:15:16;;;;;;;8.10;2.90;;;;;;;26.37;30.38;96847.13;5006292;28;20234;-72
2023/10/08 11:17:47;;;;;;;10.50;3.27;;;;;;;26.39;29.58;96850.44;5005441;28;20629;-75
2023/10/08 11:20:27;;;;;;;6.53;3.10;;;;;;;26.34;29.96;96836.84;5007026;28;20684;-72
2023/10/08 11:22:55;;;;;;;9.60;3.47;;;;;;;26.39;30.37;96853.94;5006002;28;20199;-77
2023/10/08 11:25:30;;;;;;;7.77;3.03;;;;;;;26.25;30.41;96837.91;5006258;28;20195;-73
2023/10/08 11:28:10;;;;;;;5.87;2.43;;;;;;;26.37;30.31;96847.13;5006307;28;20587;-70
2023/10/08 11:30:42;;;;;;;7.80;3.00;;;;;;;26.42;29.79;96826.22;5005489;28;20187;-71
2023/10/08 11:33:15;;;;;;;9.87;2.80;;;;;;;26.52;30.01;96834.81;4986999;28;20196;-80
2023/10/08 11:36:06;;;;;;;6.40;3.57;;;;;;;26.39;30.20;96843.31;4989139;28;20634;-77
2023/10/08 11:38:47;;;;;;;8.93;2.70;;;;;;;26.53;30.08;96844.41;5003694;28;20227;-70
2023/10/08 11:41:27;;;;;;;12.37;3.50;;;;;;;26.57;29.82;96827.13;5005147;28;20203;-71
2023/10/08 11:43:58;;;;;;;5.67;2.77;;;;;;;26.61;29.66;96821.28;4988066;28;20265;-82
2023/10/08 11:46:41;;;;;;;8.70;3.10;;;;;;;26.75;29.76;96825.03;4993653;28;20195;-83
2023/10/08 11:49:17;;;;;;;5.90;2.77;;;;;;;26.47;29.74;96821.19;4992524;28;20223;-86
2023/10/08 11:51:46;;;;;;;14.20;3.07;;;;;;;26.33;30.23;96814.78;5002829;28;20217;-72
2023/10/08 11:54:14;;;;;;;12.30;3.63;;;;;;;26.23;29.96;96816.00;5007966;28;20231;-80
2023/10/08 11:56:44;;;;;;;12.27;3.67;;;;;;;26.25;29.68;96816.66;4985289;28;20282;-71
2023/10/08 11:59:12;;;;;;;12.73;3.37;;;;;;;26.32;29.67;96817.59;5014110;28;20196;-73
2023/10/08 12:01:42;;;;;;;7.43;2.77;;;;;;;26.39;29.90;96808.78;4998549;28;20201;-71
2023/10/08 12:04:13;;;;;;;13.77;3.13;;;;;;;26.47;29.63;96795.47;5004210;28;20196;-71
2023/10/08 12:06:46;;;;;;;9.17;3.50;;;;;;;26.58;29.21;96803.03;4994430;28;20188;-75
2023/10/08 12:09:14;;;;;;;10.53;3.90;;;;;;;26.73;29.21;96797.81;5008715;28;20206;-72
2023/10/08 12:11:42;;;;;;;7.23;3.03;;;;;;;26.81;29.32;96796.97;5007618;28;20193;-74
2023/10/08 12:14:10;;;;;;;13.57;3.10;;;;;;;26.79;29.42;96794.47;5012328;28;20682;-71
2023/10/08 12:16:40;;;;;;;8.70;2.67;;;;;;;26.79;29.49;96805.09;4992137;28;20258;-72
2023/10/08 12:19:16;;;;;;;7.33;3.87;;;;;;;26.77;29.50;96785.84;4989751;28;20196;-77
2023/10/08 12:21:49;;;;;;;8.93;3.60;;;;;;;26.81;29.44;96794.31;4993040;28;20189;-72
2023/10/08 12:24:17;;;;;;;8.83;2.90;;;;;;;26.84;29.38;96792.13;5002269;28;20199;-72
2023/10/08 12:26:49;;;;;;;12.40;2.87;;;;;;;26.88;29.52;96788.09;5000430;28;20195;-86
2023/10/08 12:29:19;;;;;;;9.70;2.60;;;;;;;26.89;29.58;96789.75;4991425;28;20192;-76